createdAt,value
2022-12-23T00:01:53.774Z,99.90
2022-12-23T00:04:20.633Z,99.90
2022-12-23T00:06:47.488Z,99.90
2022-12-23T00:09:14.331Z,99.90
2022-12-23T00:12:00.993Z,99.90
2022-12-23T00:14:46.438Z,99.90
2022-12-23T00:17:23.746Z,99.90
2022-12-23T00:19:50.570Z,99.90
2022-12-23T00:22:17.222Z,99.90
2022-12-23T00:24:44.023Z,99.90
2022-12-23T00:27:11.026Z,99.90
2022-12-23T00:29:37.740Z,99.90
2022-12-23T00:32:04.789Z,99.90
2022-12-23T00:34:31.572Z,99.90
2022-12-23T00:36:58.228Z,99.90
2022-12-23T00:39:43.322Z,99.90
2022-12-23T00:42:28.752Z,99.90
2022-12-23T00:45:16.051Z,99.90
2022-12-23T00:48:05.913Z,99.90
2022-12-23T00:50:35.652Z,99.90
2022-12-23T00:53:02.627Z,99.90
2022-12-23T00:55:30.242Z,99.90
2022-12-23T00:57:57.126Z,99.90
2022-12-23T01:00:44.511Z,99.90
2022-12-23T01:03:31.972Z,99.90
2022-12-23T01:06:00.135Z,99.90
2022-12-23T01:08:27.586Z,99.90
2022-12-23T01:10:54.698Z,99.90
2022-12-23T01:13:22.002Z,99.90
2022-12-23T01:15:48.775Z,99.90
2022-12-23T01:18:15.537Z,99.90
2022-12-23T01:20:42.302Z,99.90
2022-12-23T01:23:09.086Z,99.90
2022-12-23T01:25:35.788Z,99.90
2022-12-23T01:28:02.664Z,99.90
2022-12-23T01:30:29.382Z,99.90
2022-12-23T01:32:56.289Z,99.90
2022-12-23T01:35:23.057Z,99.90
2022-12-23T01:37:49.752Z,99.90
2022-12-23T01:40:16.657Z,99.90
2022-12-23T01:42:43.472Z,99.90
2022-12-23T01:45:18.219Z,99.90
2022-12-23T01:48:09.980Z,99.90
2022-12-23T01:50:53.700Z,99.90
2022-12-23T01:53:31.449Z,99.90
2022-12-23T01:56:20.314Z,99.90
2022-12-23T01:58:51.641Z,99.90
2022-12-23T02:01:37.359Z,99.90
2022-12-23T02:04:13.845Z,99.90
2022-12-23T02:07:00.265Z,99.90
2022-12-23T02:09:32.878Z,99.90
2022-12-23T02:12:05.772Z,99.90
2022-12-23T02:15:08.003Z,99.90
2022-12-23T02:17:52.675Z,99.90
2022-12-23T02:20:46.906Z,99.90
2022-12-23T02:23:51.617Z,99.90
2022-12-23T02:26:40.238Z,99.90
2022-12-23T02:29:25.119Z,99.90
2022-12-23T02:32:21.336Z,99.90
2022-12-23T02:34:53.766Z,99.90
2022-12-23T02:37:24.573Z,99.90
2022-12-23T02:40:15.784Z,99.90
2022-12-23T02:42:50.710Z,99.90
2022-12-23T02:45:22.298Z,99.90
2022-12-23T02:47:57.762Z,99.90
2022-12-23T02:50:29.819Z,99.90
2022-12-23T02:53:01.509Z,99.90
2022-12-23T02:55:35.211Z,99.90
2022-12-23T02:58:08.244Z,99.90
2022-12-23T03:00:37.298Z,99.90
2022-12-23T03:03:04.211Z,99.90
2022-12-23T03:05:39.700Z,99.90
2022-12-23T03:08:11.082Z,99.90
2022-12-23T03:11:07.543Z,99.90
2022-12-23T03:13:49.086Z,99.90
2022-12-23T03:16:24.380Z,99.90
2022-12-23T03:19:26.775Z,99.90
2022-12-23T03:22:09.244Z,99.90
2022-12-23T03:25:03.758Z,99.90
2022-12-23T03:27:41.096Z,99.90
2022-12-23T03:30:12.963Z,99.90
2022-12-23T03:32:47.290Z,99.90
2022-12-23T03:35:19.449Z,99.90
2022-12-23T03:37:49.561Z,99.90
2022-12-23T03:40:28.079Z,99.90
2022-12-23T03:43:11.809Z,99.90
2022-12-23T03:45:47.617Z,99.90
2022-12-23T03:48:55.619Z,99.90
2022-12-23T03:51:33.209Z,99.90
2022-12-23T03:54:05.334Z,99.90
2022-12-23T03:56:36.278Z,99.90
2022-12-23T03:59:13.311Z,99.90
2022-12-23T04:01:53.639Z,99.90
2022-12-23T04:04:42.267Z,99.90
2022-12-23T04:07:22.537Z,99.90
2022-12-23T04:09:54.285Z,99.90
2022-12-23T04:12:24.437Z,99.90
2022-12-23T04:14:51.675Z,99.90
2022-12-23T04:17:19.212Z,99.90
2022-12-23T04:19:47.083Z,99.90
2022-12-23T04:22:15.397Z,99.90
2022-12-23T04:24:43.041Z,99.90
2022-12-23T04:27:13.695Z,99.90
2022-12-23T04:29:40.526Z,99.90
2022-12-23T04:32:08.062Z,99.90
2022-12-23T04:34:35.549Z,99.90
2022-12-23T04:37:02.601Z,99.90
2022-12-23T04:39:29.416Z,99.90
2022-12-23T04:41:56.141Z,99.90
2022-12-23T04:44:22.937Z,99.90
2022-12-23T04:46:49.777Z,99.90
2022-12-23T04:49:16.456Z,99.90
2022-12-23T04:51:43.205Z,99.90
2022-12-23T04:54:10.101Z,99.90
2022-12-23T04:56:36.813Z,99.90
2022-12-23T04:59:04.419Z,99.90
2022-12-23T05:01:31.633Z,99.90
2022-12-23T05:03:58.425Z,99.90
2022-12-23T05:06:25.184Z,99.90
2022-12-23T05:08:51.988Z,99.90
2022-12-23T05:11:18.812Z,99.90
2022-12-23T05:13:45.648Z,99.90
2022-12-23T05:16:12.691Z,99.90
2022-12-23T05:18:39.476Z,99.90
2022-12-23T05:21:06.189Z,99.90
2022-12-23T05:23:32.991Z,99.90
2022-12-23T05:25:59.887Z,99.90
2022-12-23T05:28:26.564Z,99.90
2022-12-23T05:31:01.249Z,99.90
2022-12-23T05:33:28.383Z,99.90
2022-12-23T05:35:55.519Z,99.90
2022-12-23T05:38:22.513Z,99.90
2022-12-23T05:40:49.815Z,99.90
2022-12-23T05:43:16.534Z,99.90
2022-12-23T05:45:43.888Z,99.90
2022-12-23T05:48:10.823Z,99.90
2022-12-23T05:50:38.543Z,99.90
2022-12-23T05:53:06.607Z,99.90
2022-12-23T05:55:33.626Z,99.90
2022-12-23T05:58:00.336Z,99.90
2022-12-23T06:00:27.352Z,99.90
2022-12-23T06:02:54.593Z,99.90
2022-12-23T06:05:21.805Z,99.90
2022-12-23T06:07:48.674Z,99.90
2022-12-23T06:10:15.338Z,99.90
2022-12-23T06:12:42.140Z,99.90
2022-12-23T06:15:09.761Z,99.90
2022-12-23T06:17:36.712Z,99.90
2022-12-23T06:20:04.178Z,99.90
2022-12-23T06:22:31.508Z,99.90
2022-12-23T06:24:58.200Z,99.90
2022-12-23T06:27:25.027Z,99.90
2022-12-23T06:29:51.884Z,99.90
2022-12-23T06:32:18.770Z,99.90
2022-12-23T06:34:46.676Z,99.90
2022-12-23T06:37:13.492Z,99.90
2022-12-23T06:39:40.174Z,99.90
2022-12-23T06:42:06.868Z,99.90
2022-12-23T06:44:33.632Z,99.90
2022-12-23T06:47:00.312Z,99.90
2022-12-23T06:49:27.083Z,99.90
2022-12-23T06:51:53.865Z,99.90
2022-12-23T06:54:20.602Z,99.90
2022-12-23T06:56:47.493Z,99.90
2022-12-23T06:59:14.358Z,99.90
2022-12-23T07:01:41.189Z,99.90
2022-12-23T07:04:07.986Z,99.90
2022-12-23T07:06:34.863Z,99.90
2022-12-23T07:09:01.704Z,99.90
2022-12-23T07:11:28.469Z,99.90
2022-12-23T07:13:55.262Z,99.90
2022-12-23T07:16:21.979Z,99.90
2022-12-23T07:18:48.782Z,99.90
2022-12-23T07:21:24.640Z,99.90
2022-12-23T07:23:55.286Z,99.90
2022-12-23T07:26:22.038Z,99.90
2022-12-23T07:28:49.043Z,99.90
2022-12-23T07:31:16.314Z,99.90
2022-12-23T07:33:43.341Z,99.90
2022-12-23T07:36:10.358Z,99.90
2022-12-23T07:38:37.085Z,99.90
2022-12-23T07:41:04.167Z,99.90
2022-12-23T07:43:31.016Z,99.90
2022-12-23T07:46:00.853Z,99.90
2022-12-23T07:48:28.065Z,99.90
2022-12-23T07:51:00.834Z,99.90
2022-12-23T07:53:27.813Z,99.90
2022-12-23T07:55:56.700Z,99.90
2022-12-23T07:58:23.819Z,99.90
2022-12-23T08:00:50.642Z,99.90
2022-12-23T08:03:17.967Z,99.90
2022-12-23T08:05:44.796Z,99.90
2022-12-23T08:08:11.806Z,99.90
2022-12-23T08:10:44.494Z,99.90
2022-12-23T08:13:14.820Z,99.90
2022-12-23T08:15:41.640Z,99.90
2022-12-23T08:18:08.320Z,99.90
2022-12-23T08:20:35.120Z,99.90
2022-12-23T08:23:02.150Z,99.90
2022-12-23T08:25:28.798Z,99.90
2022-12-23T08:27:55.465Z,99.90
2022-12-23T08:30:22.515Z,99.90
2022-12-23T08:32:49.195Z,99.90
2022-12-23T08:35:15.976Z,99.90
2022-12-23T08:37:42.845Z,99.90
2022-12-23T08:40:09.935Z,99.90
2022-12-23T08:42:36.636Z,99.90
2022-12-23T08:45:03.609Z,99.90
2022-12-23T08:47:30.403Z,99.90
2022-12-23T08:49:57.127Z,99.90
2022-12-23T08:52:24.146Z,99.90
2022-12-23T08:54:50.818Z,99.90
2022-12-23T08:57:17.647Z,99.90
2022-12-23T08:59:44.464Z,99.90
2022-12-23T09:02:12.022Z,99.90
2022-12-23T09:04:39.027Z,99.90
2022-12-23T09:07:06.161Z,99.90
2022-12-23T09:09:32.915Z,99.90
2022-12-23T09:11:59.675Z,99.90
2022-12-23T09:14:26.682Z,99.90
2022-12-23T09:16:53.452Z,99.90
2022-12-23T09:19:20.399Z,99.90
2022-12-23T09:21:47.866Z,99.90
2022-12-23T09:24:14.565Z,99.90
2022-12-23T09:26:41.379Z,99.90
2022-12-23T09:29:08.423Z,99.90
2022-12-23T09:31:37.790Z,99.90
2022-12-23T09:34:06.162Z,99.90
2022-12-23T09:36:33.385Z,99.90
2022-12-23T09:39:00.148Z,99.90
2022-12-23T09:41:49.355Z,99.90
2022-12-23T09:44:32.563Z,99.90
2022-12-23T09:47:03.704Z,99.90
2022-12-23T09:49:30.756Z,99.90
2022-12-23T09:52:02.722Z,99.90
2022-12-23T09:54:34.944Z,99.90
2022-12-23T09:57:26.110Z,99.90
2022-12-23T10:00:08.290Z,99.90
2022-12-23T10:02:58.385Z,99.90
2022-12-23T10:05:50.108Z,99.90
2022-12-23T10:08:29.227Z,99.90
2022-12-23T10:11:20.741Z,99.90
2022-12-23T10:14:01.872Z,99.90
2022-12-23T10:16:38.701Z,99.90
2022-12-23T10:19:32.122Z,99.90
2022-12-23T10:22:15.966Z,99.90
2022-12-23T10:24:45.905Z,99.90
2022-12-23T10:27:23.425Z,99.90
2022-12-23T10:29:50.529Z,99.90
2022-12-23T10:32:17.309Z,99.90
2022-12-23T10:35:11.170Z,99.90
2022-12-23T10:38:02.042Z,99.90
2022-12-23T10:40:34.595Z,99.90
2022-12-23T10:43:39.297Z,99.90
2022-12-23T10:46:36.682Z,99.90
2022-12-23T10:49:32.409Z,99.90
2022-12-23T10:52:22.912Z,99.90
2022-12-23T10:54:49.855Z,99.90
2022-12-23T10:57:18.561Z,99.90
2022-12-23T10:59:45.657Z,99.90
2022-12-23T11:02:12.475Z,99.90
2022-12-23T11:04:45.227Z,99.90
2022-12-23T11:07:43.393Z,99.90
2022-12-23T11:10:13.085Z,99.90
2022-12-23T11:12:43.113Z,99.90
2022-12-23T11:15:26.361Z,99.90
2022-12-23T11:18:11.234Z,99.90
2022-12-23T11:20:40.174Z,99.90
2022-12-23T11:23:27.185Z,99.90
2022-12-23T11:26:09.373Z,99.90
2022-12-23T11:28:39.595Z,99.90
2022-12-23T11:31:11.965Z,99.90
2022-12-23T11:33:45.540Z,99.90
2022-12-23T11:36:25.908Z,99.90
2022-12-23T11:39:07.624Z,99.90
2022-12-23T11:41:38.955Z,99.90
2022-12-23T11:44:10.313Z,99.90
2022-12-23T11:46:37.142Z,99.90
2022-12-23T11:49:28.437Z,99.90
2022-12-23T11:52:11.863Z,99.90
2022-12-23T11:54:39.560Z,99.90
2022-12-23T11:57:15.496Z,97.90
2022-12-23T11:59:45.001Z,94.70
2022-12-23T12:02:27.585Z,92.10
2022-12-23T12:05:08.821Z,89.00
2022-12-23T12:07:35.981Z,87.20
2022-12-23T12:10:04.000Z,85.00
2022-12-23T12:12:30.999Z,90.80
2022-12-23T12:14:59.864Z,95.40
2022-12-23T12:17:47.613Z,99.10
2022-12-23T12:20:24.201Z,99.90
2022-12-23T12:23:11.796Z,99.90
2022-12-23T12:25:44.200Z,99.90
2022-12-23T12:28:19.839Z,99.90
2022-12-23T12:30:56.339Z,99.90
2022-12-23T12:33:38.565Z,99.90
2022-12-23T12:36:05.783Z,99.90
2022-12-23T12:38:36.069Z,99.90
2022-12-23T12:41:07.367Z,99.90
2022-12-23T12:43:39.523Z,99.90
2022-12-23T12:46:31.001Z,99.90
2022-12-23T12:49:21.012Z,99.90
2022-12-23T12:51:57.035Z,99.90
2022-12-23T12:54:37.196Z,99.90
2022-12-23T12:57:04.142Z,99.90
2022-12-23T12:59:36.777Z,99.90
2022-12-23T13:02:41.589Z,99.90
2022-12-23T13:05:36.078Z,99.90
2022-12-23T13:08:33.876Z,99.90
2022-12-23T13:11:10.810Z,99.90
2022-12-23T13:14:18.505Z,99.90
2022-12-23T13:16:53.711Z,99.90
2022-12-23T13:20:09.080Z,99.90
2022-12-23T13:22:37.235Z,99.90
2022-12-23T13:25:29.148Z,99.90
2022-12-23T13:28:26.704Z,99.90
2022-12-23T13:31:19.391Z,99.90
2022-12-23T13:33:58.107Z,99.90
2022-12-23T13:36:44.623Z,99.90
2022-12-23T13:39:42.132Z,99.90
2022-12-23T13:42:16.533Z,99.90
2022-12-23T13:44:43.699Z,99.90
2022-12-23T13:47:30.144Z,99.90
2022-12-23T13:50:02.162Z,99.90
2022-12-23T13:53:06.212Z,99.90
2022-12-23T13:56:13.995Z,99.90
2022-12-23T13:58:41.272Z,99.90
2022-12-23T14:01:08.090Z,99.90
2022-12-23T14:03:37.757Z,99.90
2022-12-23T14:06:24.433Z,99.90
2022-12-23T14:08:52.608Z,99.90
2022-12-23T14:11:29.813Z,99.90
2022-12-23T14:14:07.360Z,99.90
2022-12-23T14:16:58.799Z,99.90
2022-12-23T14:19:47.385Z,99.90
2022-12-23T14:22:31.679Z,99.90
2022-12-23T14:25:15.370Z,99.90
2022-12-23T14:27:51.256Z,99.90
2022-12-23T14:30:45.538Z,99.90
2022-12-23T14:33:15.351Z,99.90
2022-12-23T14:35:42.879Z,99.90
2022-12-23T14:38:15.631Z,99.90
2022-12-23T14:40:42.619Z,99.90
2022-12-23T14:43:27.685Z,99.90
2022-12-23T14:46:06.180Z,99.90
2022-12-23T14:48:36.053Z,99.90
2022-12-23T14:51:40.695Z,99.90
2022-12-23T14:54:15.325Z,99.90
2022-12-23T14:57:00.539Z,99.90
2022-12-23T14:59:58.512Z,99.90
2022-12-23T15:02:35.356Z,99.90
2022-12-23T15:05:02.583Z,99.90
2022-12-23T15:07:33.624Z,99.90
2022-12-23T15:10:06.501Z,99.90
2022-12-23T15:12:35.104Z,99.90
2022-12-23T15:15:29.858Z,99.90
2022-12-23T15:18:10.949Z,99.90
2022-12-23T15:20:38.302Z,99.90
2022-12-23T15:23:16.281Z,99.90
2022-12-23T15:25:46.536Z,99.90
2022-12-23T15:28:41.312Z,99.90
2022-12-23T15:31:25.952Z,99.90
2022-12-23T15:34:03.446Z,99.90
2022-12-23T15:36:36.870Z,99.90
2022-12-23T15:39:09.938Z,99.90
2022-12-23T15:41:44.126Z,99.90
2022-12-23T15:44:15.627Z,99.90
2022-12-23T15:46:42.754Z,99.90
2022-12-23T15:49:11.781Z,99.90
2022-12-23T15:54:35.446Z,99.90
2022-12-23T15:57:04.436Z,99.90
2022-12-23T15:59:38.605Z,99.90
2022-12-23T16:05:42.090Z,99.90
2022-12-23T16:08:21.597Z,99.90
2022-12-23T16:11:15.343Z,99.90
2022-12-23T16:13:58.345Z,99.90
2022-12-23T16:16:34.092Z,99.90
2022-12-23T16:19:00.840Z,99.90
2022-12-23T16:21:34.833Z,99.90
2022-12-23T16:24:07.059Z,99.90
2022-12-23T16:26:42.501Z,99.90
2022-12-23T16:29:11.479Z,99.90
2022-12-23T16:31:42.812Z,99.90
2022-12-23T16:34:13.389Z,99.90
2022-12-23T16:36:40.368Z,99.90
2022-12-23T16:39:07.088Z,99.90
2022-12-23T16:41:35.079Z,99.90
2022-12-23T16:44:02.341Z,99.90
2022-12-23T16:46:34.163Z,99.90
2022-12-23T16:49:04.784Z,99.90
2022-12-23T16:51:34.173Z,99.90
2022-12-23T16:54:03.469Z,99.90
2022-12-23T16:56:36.426Z,99.90
2022-12-23T16:59:04.401Z,99.90
2022-12-23T17:01:41.996Z,99.90
2022-12-23T17:04:09.344Z,99.90
2022-12-23T17:06:36.750Z,99.90
2022-12-23T17:09:05.164Z,99.90
2022-12-23T17:11:39.592Z,99.90
2022-12-23T17:14:13.522Z,99.90
2022-12-23T17:16:42.522Z,99.90
2022-12-23T17:19:09.508Z,99.90
2022-12-23T17:21:37.767Z,99.90
2022-12-23T17:24:09.446Z,99.90
2022-12-23T17:26:36.213Z,99.90
2022-12-23T17:29:04.967Z,99.90
2022-12-23T17:31:34.588Z,99.90
2022-12-23T17:34:02.187Z,99.90
2022-12-23T17:36:29.549Z,99.90
2022-12-23T17:38:56.390Z,99.90
2022-12-23T17:41:26.594Z,99.90
2022-12-23T17:43:53.302Z,99.90
2022-12-23T17:46:20.418Z,99.90
2022-12-23T17:48:47.824Z,99.90
2022-12-23T17:51:17.225Z,99.90
2022-12-23T17:53:45.265Z,99.90
2022-12-23T17:56:13.930Z,99.90
2022-12-23T17:58:41.713Z,99.90
2022-12-23T18:01:21.888Z,99.90
2022-12-23T18:03:48.680Z,99.90
2022-12-23T18:06:18.063Z,99.90
2022-12-23T18:08:45.959Z,99.90
2022-12-23T18:11:21.231Z,99.90
2022-12-23T18:13:50.050Z,99.90
2022-12-23T18:16:16.776Z,99.90
2022-12-23T18:18:46.662Z,99.90
2022-12-23T18:21:26.235Z,99.90
2022-12-23T18:23:56.665Z,99.90
2022-12-23T18:26:24.798Z,99.90
2022-12-23T18:28:54.328Z,99.90
2022-12-23T18:31:25.712Z,99.90
2022-12-23T18:33:53.053Z,99.90
2022-12-23T18:36:25.978Z,99.90
2022-12-23T18:38:53.836Z,99.90
2022-12-23T18:41:21.455Z,99.90
2022-12-23T18:43:48.437Z,99.90
2022-12-23T18:46:15.256Z,99.90
2022-12-23T18:48:42.240Z,99.90
2022-12-23T18:51:17.469Z,99.90
2022-12-23T18:53:45.421Z,99.90
2022-12-23T18:56:24.025Z,99.90
2022-12-23T18:58:50.730Z,99.90
2022-12-23T19:01:18.867Z,99.90
2022-12-23T19:03:46.549Z,99.90
2022-12-23T19:06:14.587Z,99.90
2022-12-23T19:08:42.594Z,99.90
2022-12-23T19:11:15.579Z,99.90
2022-12-23T19:13:42.467Z,99.90
2022-12-23T19:16:16.821Z,99.90
2022-12-23T19:18:44.318Z,99.90
2022-12-23T19:21:11.119Z,99.90
2022-12-23T19:23:39.454Z,99.90
2022-12-23T19:26:06.252Z,99.90
2022-12-23T19:28:33.547Z,99.90
2022-12-23T19:31:00.442Z,99.90
2022-12-23T19:33:27.343Z,99.90
2022-12-23T19:35:54.144Z,99.90
2022-12-23T19:38:21.124Z,99.90
2022-12-23T19:40:56.546Z,99.90
2022-12-23T19:43:23.421Z,99.90
2022-12-23T19:46:01.696Z,99.90
2022-12-23T19:48:29.479Z,99.90
2022-12-23T19:51:01.602Z,99.90
2022-12-23T19:53:29.313Z,99.90
2022-12-23T19:56:07.470Z,99.90
2022-12-23T19:58:40.052Z,99.90
2022-12-23T20:01:21.722Z,99.90
2022-12-23T20:03:49.676Z,99.90
2022-12-23T20:06:30.616Z,99.90
2022-12-23T20:09:00.884Z,99.90
2022-12-23T20:11:30.626Z,99.90
2022-12-23T20:13:58.522Z,99.90
2022-12-23T20:16:26.428Z,99.90
2022-12-23T20:18:53.540Z,99.90
2022-12-23T20:21:20.666Z,99.90
2022-12-23T20:23:47.796Z,99.90
2022-12-23T20:26:16.099Z,99.90
2022-12-23T20:28:42.881Z,99.90
2022-12-23T20:31:23.974Z,99.90
2022-12-23T20:33:52.726Z,99.90
2022-12-23T20:36:21.662Z,99.90
2022-12-23T20:38:49.037Z,99.90
2022-12-23T20:41:21.909Z,99.90
2022-12-23T20:44:02.728Z,99.90
2022-12-23T20:46:35.711Z,99.90
2022-12-23T20:49:02.521Z,99.90
2022-12-23T20:51:29.323Z,99.90
2022-12-23T20:54:00.139Z,99.90
2022-12-23T20:56:29.167Z,99.90
2022-12-23T20:58:59.065Z,99.90
2022-12-23T21:01:32.236Z,99.90
2022-12-23T21:04:00.994Z,99.90
2022-12-23T21:06:29.053Z,99.90
2022-12-23T21:08:58.229Z,99.90
2022-12-23T21:11:26.877Z,99.90
2022-12-23T21:13:53.909Z,99.90
2022-12-23T21:16:21.243Z,99.90
2022-12-23T21:18:52.589Z,99.90
2022-12-23T21:21:26.307Z,99.90
2022-12-23T21:23:57.589Z,99.90
2022-12-23T21:26:27.556Z,99.90
2022-12-23T21:28:56.008Z,99.90
2022-12-23T21:31:23.926Z,99.90
2022-12-23T21:33:51.955Z,99.90
2022-12-23T21:36:21.368Z,99.90
2022-12-23T21:38:49.261Z,99.90
2022-12-23T21:41:22.140Z,99.90
2022-12-23T21:43:49.502Z,99.90
2022-12-23T21:46:20.085Z,99.90
2022-12-23T21:48:47.377Z,99.90
2022-12-23T21:51:15.856Z,99.90
2022-12-23T21:53:44.253Z,99.90
2022-12-23T21:56:13.892Z,99.90
2022-12-23T21:58:40.886Z,99.90
2022-12-23T22:01:19.532Z,99.90
2022-12-23T22:03:48.786Z,99.90
2022-12-23T22:06:22.213Z,99.90
2022-12-23T22:08:50.101Z,99.90
2022-12-23T22:11:25.520Z,99.90
2022-12-23T22:13:52.983Z,99.90
2022-12-23T22:16:22.112Z,99.90
2022-12-23T22:18:50.086Z,99.90
2022-12-23T22:21:19.848Z,99.90
2022-12-23T22:23:47.317Z,99.90
2022-12-23T22:26:23.903Z,99.90
2022-12-23T22:28:51.680Z,99.90
2022-12-23T22:31:20.027Z,99.90
2022-12-23T22:33:47.101Z,99.90
2022-12-23T22:36:15.841Z,99.90
2022-12-23T22:38:43.480Z,99.90
2022-12-23T22:41:10.862Z,99.90
2022-12-23T22:43:37.898Z,99.90
2022-12-23T22:46:05.364Z,99.90
2022-12-23T22:48:32.400Z,99.90
2022-12-23T22:51:09.674Z,99.90
2022-12-23T22:53:37.212Z,99.90
2022-12-23T22:56:05.305Z,99.90
2022-12-23T22:58:33.685Z,99.90
2022-12-23T23:01:00.881Z,99.90
2022-12-23T23:03:28.462Z,99.90
2022-12-23T23:06:07.718Z,99.90
2022-12-23T23:08:34.801Z,99.90
2022-12-23T23:11:03.597Z,99.90
2022-12-23T23:13:33.312Z,99.90
2022-12-23T23:16:01.496Z,99.90
2022-12-23T23:18:29.689Z,99.90
2022-12-23T23:20:56.841Z,99.90
2022-12-23T23:23:23.707Z,99.90
2022-12-23T23:25:50.451Z,99.90
2022-12-23T23:28:17.473Z,99.90
2022-12-23T23:30:44.416Z,99.90
2022-12-23T23:33:11.978Z,99.90
2022-12-23T23:35:39.393Z,99.90
2022-12-23T23:38:06.160Z,99.90
2022-12-23T23:40:32.988Z,99.90
2022-12-23T23:43:00.549Z,99.90
2022-12-23T23:45:27.527Z,99.90
2022-12-23T23:47:55.319Z,99.90
2022-12-23T23:50:22.603Z,99.90
2022-12-23T23:52:49.341Z,99.90
2022-12-23T23:55:16.102Z,99.90
2022-12-23T23:57:42.854Z,99.90
